createdAt,value
2022-12-23T00:01:24.192Z,8.40
2022-12-23T00:03:52.570Z,8.10
2022-12-23T00:06:20.684Z,7.70
2022-12-23T00:08:48.439Z,7.68
2022-12-23T00:11:18.000Z,7.22
2022-12-23T00:14:08.099Z,8.05
2022-12-23T00:16:39.271Z,8.32
2022-12-23T00:19:07.184Z,8.02
2022-12-23T00:21:36.091Z,7.18
2022-12-23T00:24:06.338Z,7.93
2022-12-23T00:26:34.448Z,6.75
2022-12-23T00:29:02.451Z,6.90
2022-12-23T00:31:30.424Z,6.47
2022-12-23T00:33:58.396Z,6.50
2022-12-23T00:36:28.988Z,6.20
2022-12-23T00:39:16.630Z,6.65
2022-12-23T00:42:02.956Z,6.15
2022-12-23T00:44:30.894Z,5.90
2022-12-23T00:46:58.742Z,5.97
2022-12-23T00:49:42.371Z,6.32
2022-12-23T00:52:12.287Z,6.22
2022-12-23T00:54:40.304Z,5.75
2022-12-23T00:57:08.187Z,6.28
2022-12-23T00:59:39.242Z,6.00
2022-12-23T01:02:30.291Z,6.95
2022-12-23T01:05:33.470Z,6.32
2022-12-23T01:08:01.185Z,6.53
2022-12-23T01:10:29.109Z,6.25
2022-12-23T01:12:56.924Z,5.72
2022-12-23T01:15:24.735Z,7.22
2022-12-23T01:17:52.631Z,6.30
2022-12-23T01:20:20.822Z,6.43
2022-12-23T01:22:48.657Z,5.90
2022-12-23T01:25:18.327Z,5.90
2022-12-23T01:27:46.101Z,6.43
2022-12-23T01:30:14.246Z,6.35
2022-12-23T01:32:42.439Z,5.97
2022-12-23T01:35:10.418Z,6.43
2022-12-23T01:37:38.564Z,6.25
2022-12-23T01:40:07.137Z,5.78
2022-12-23T01:42:43.757Z,6.28
2022-12-23T01:45:30.338Z,6.25
2022-12-23T01:48:12.620Z,6.25
2022-12-23T01:50:58.567Z,6.18
2022-12-23T01:53:43.073Z,5.88
2022-12-23T01:56:27.077Z,5.63
2022-12-23T01:59:09.097Z,6.43
2022-12-23T02:01:55.359Z,5.32
2022-12-23T02:04:24.145Z,6.10
2022-12-23T02:07:10.367Z,6.20
2022-12-23T02:12:25.686Z,6.22
2022-12-23T02:15:24.569Z,5.93
2022-12-23T02:18:30.945Z,6.72
2022-12-23T02:21:13.037Z,5.78
2022-12-23T02:24:02.307Z,5.25
2022-12-23T02:26:53.888Z,5.97
2022-12-23T02:29:46.120Z,6.07
2022-12-23T02:32:19.323Z,6.05
2022-12-23T02:35:19.920Z,5.95
2022-12-23T02:37:57.363Z,6.10
2022-12-23T02:40:44.196Z,6.70
2022-12-23T02:43:22.847Z,6.57
2022-12-23T02:46:19.685Z,6.05
2022-12-23T02:48:54.530Z,6.95
2022-12-23T02:51:24.590Z,6.72
2022-12-23T02:53:56.229Z,6.40
2022-12-23T02:56:25.893Z,6.00
2022-12-23T02:59:02.161Z,6.60
2022-12-23T03:01:31.182Z,5.97
2022-12-23T03:03:59.261Z,6.40
2022-12-23T03:06:35.120Z,5.97
2022-12-23T03:09:02.844Z,6.18
2022-12-23T03:11:42.579Z,7.07
2022-12-23T03:14:36.376Z,5.95
2022-12-23T03:17:30.451Z,6.75
2022-12-23T03:20:26.635Z,6.13
2022-12-23T03:23:14.662Z,7.27
2022-12-23T03:25:50.266Z,6.93
2022-12-23T03:28:21.602Z,7.05
2022-12-23T03:30:51.574Z,6.93
2022-12-23T03:33:21.480Z,6.90
2022-12-23T03:36:02.761Z,7.28
2022-12-23T03:38:36.520Z,8.05
2022-12-23T03:41:07.225Z,7.68
2022-12-23T03:43:38.266Z,7.43
2022-12-23T03:46:11.071Z,8.10
2022-12-23T03:48:47.197Z,8.38
2022-12-23T03:51:30.143Z,7.75
2022-12-23T03:54:19.655Z,8.13
2022-12-23T03:56:57.456Z,8.85
2022-12-23T03:59:36.186Z,8.27
2022-12-23T04:03:17.611Z,9.10
2022-12-23T04:06:05.941Z,9.25
2022-12-23T04:08:44.491Z,8.70
2022-12-23T04:11:21.891Z,8.68
2022-12-23T04:13:49.902Z,9.63
2022-12-23T04:16:19.679Z,9.48
2022-12-23T04:18:50.023Z,8.93
2022-12-23T04:21:20.400Z,9.18
2022-12-23T04:23:48.385Z,9.40
2022-12-23T04:26:16.160Z,9.60
2022-12-23T04:28:43.924Z,10.38
2022-12-23T04:31:11.778Z,9.80
2022-12-23T04:33:39.810Z,10.30
2022-12-23T04:36:07.640Z,9.20
2022-12-23T04:38:35.552Z,10.00
2022-12-23T04:41:06.113Z,10.60
2022-12-23T04:43:35.839Z,9.55
2022-12-23T04:46:11.147Z,8.70
2022-12-23T04:48:39.360Z,9.63
2022-12-23T04:51:09.167Z,9.77
2022-12-23T04:53:40.108Z,9.30
2022-12-23T04:56:08.158Z,10.05
2022-12-23T04:58:38.891Z,10.38
2022-12-23T05:01:08.569Z,10.13
2022-12-23T05:03:37.469Z,10.68
2022-12-23T05:06:06.127Z,10.90
2022-12-23T05:08:37.471Z,9.02
2022-12-23T05:11:08.370Z,9.02
2022-12-23T05:13:37.034Z,9.93
2022-12-23T05:16:07.566Z,9.27
2022-12-23T05:18:36.637Z,9.30
2022-12-23T05:21:10.899Z,9.18
2022-12-23T05:23:40.904Z,9.00
2022-12-23T05:26:12.091Z,9.60
2022-12-23T05:28:40.122Z,9.63
2022-12-23T05:31:08.444Z,9.45
2022-12-23T05:33:40.650Z,9.50
2022-12-23T05:36:13.250Z,10.70
2022-12-23T05:38:41.189Z,9.45
2022-12-23T05:41:09.166Z,8.95
2022-12-23T05:43:36.980Z,10.10
2022-12-23T05:46:05.031Z,9.05
2022-12-23T05:48:33.061Z,9.82
2022-12-23T05:51:03.483Z,10.15
2022-12-23T05:53:33.421Z,10.27
2022-12-23T05:56:05.101Z,9.32
2022-12-23T05:58:33.031Z,9.52
2022-12-23T06:01:05.436Z,9.60
2022-12-23T06:03:37.069Z,9.88
2022-12-23T06:06:39.356Z,8.60
2022-12-23T06:09:07.455Z,9.27
2022-12-23T06:11:35.280Z,9.45
2022-12-23T06:14:04.035Z,9.55
2022-12-23T06:16:32.877Z,10.20
2022-12-23T06:19:01.678Z,10.38
2022-12-23T06:21:32.156Z,8.82
2022-12-23T06:24:00.572Z,10.02
2022-12-23T06:26:30.852Z,10.43
2022-12-23T06:28:58.927Z,11.32
2022-12-23T06:31:29.352Z,11.23
2022-12-23T06:33:57.213Z,10.68
2022-12-23T06:36:25.067Z,10.48
2022-12-23T06:41:43.410Z,10.63
2022-12-23T06:44:14.233Z,11.73
2022-12-23T06:46:42.164Z,11.60
2022-12-23T06:49:13.384Z,12.90
2022-12-23T06:51:41.727Z,12.05
2022-12-23T06:54:11.449Z,11.95
2022-12-23T06:56:39.786Z,11.57
2022-12-23T06:59:07.716Z,13.25
2022-12-23T07:01:35.753Z,13.05
2022-12-23T07:04:03.706Z,13.63
2022-12-23T07:06:31.679Z,12.85
2022-12-23T07:09:04.003Z,12.93
2022-12-23T07:11:32.066Z,13.77
2022-12-23T07:14:11.737Z,12.75
2022-12-23T07:16:41.939Z,12.50
2022-12-23T07:19:12.516Z,11.93
2022-12-23T07:21:43.835Z,13.48
2022-12-23T07:24:11.669Z,11.90
2022-12-23T07:26:39.455Z,12.98
2022-12-23T07:32:32.130Z,12.48
2022-12-23T07:34:59.934Z,11.52
2022-12-23T07:37:27.659Z,11.75
2022-12-23T07:39:55.673Z,11.93
2022-12-23T07:45:12.352Z,11.85
2022-12-23T07:47:40.441Z,11.82
2022-12-23T07:50:09.215Z,11.25
2022-12-23T07:52:39.685Z,11.45
2022-12-23T07:55:07.834Z,11.48
2022-12-23T07:57:43.930Z,10.68
2022-12-23T08:00:14.286Z,11.55
2022-12-23T08:02:42.446Z,11.10
2022-12-23T08:05:10.551Z,11.57
2022-12-23T08:07:38.613Z,11.02
2022-12-23T08:10:07.140Z,10.60
2022-12-23T08:12:35.264Z,11.23
2022-12-23T08:15:03.680Z,11.27
2022-12-23T08:17:34.996Z,11.30
2022-12-23T08:20:10.265Z,9.45
2022-12-23T08:22:39.436Z,10.30
2022-12-23T08:25:08.338Z,11.63
2022-12-23T08:27:39.655Z,10.95
2022-12-23T08:30:08.071Z,11.38
2022-12-23T08:32:35.940Z,10.50
2022-12-23T08:35:04.193Z,11.85
2022-12-23T08:37:32.092Z,11.02
2022-12-23T08:40:02.954Z,10.95
2022-12-23T08:42:31.377Z,11.13
2022-12-23T08:45:00.197Z,9.55
2022-12-23T08:47:28.534Z,11.05
2022-12-23T08:49:56.695Z,10.23
2022-12-23T08:52:24.533Z,9.75
2022-12-23T08:54:52.305Z,9.93
2022-12-23T08:57:23.783Z,10.93
2022-12-23T08:59:52.091Z,10.23
2022-12-23T09:02:21.039Z,10.45
2022-12-23T09:04:49.027Z,9.65
2022-12-23T09:07:16.902Z,9.45
2022-12-23T09:09:44.811Z,9.50
2022-12-23T09:12:12.688Z,9.05
2022-12-23T09:14:47.743Z,9.40
2022-12-23T09:17:15.688Z,9.68
2022-12-23T09:19:48.643Z,8.93
2022-12-23T09:22:20.107Z,10.10
2022-12-23T09:24:48.052Z,9.45
2022-12-23T09:27:15.899Z,9.48
2022-12-23T09:29:46.715Z,9.98
2022-12-23T09:32:14.588Z,10.35
2022-12-23T09:34:42.462Z,10.73
2022-12-23T09:37:10.399Z,11.38
2022-12-23T09:39:38.193Z,12.68
2022-12-23T09:42:13.493Z,13.45
2022-12-23T09:44:47.534Z,14.63
2022-12-23T09:47:17.867Z,15.75
2022-12-23T09:49:49.246Z,16.15
2022-12-23T09:52:24.238Z,15.93
2022-12-23T09:54:53.798Z,16.65
2022-12-23T09:57:32.428Z,17.92
2022-12-23T10:00:07.210Z,17.48
2022-12-23T10:02:49.745Z,18.48
2022-12-23T10:05:21.167Z,18.85
2022-12-23T10:08:08.080Z,17.25
2022-12-23T10:11:00.612Z,17.65
2022-12-23T10:14:21.399Z,20.17
2022-12-23T10:17:00.602Z,18.52
2022-12-23T14:05:31.119Z,14.52
2022-12-23T14:08:04.344Z,15.85
2022-12-23T14:10:32.458Z,16.08
2022-12-23T14:13:05.869Z,15.85
2022-12-23T14:16:04.498Z,16.58
2022-12-23T14:18:38.268Z,16.30
2022-12-23T14:21:40.422Z,16.50
2022-12-23T14:24:22.974Z,16.65
2022-12-23T14:27:28.578Z,17.08
2022-12-23T14:30:05.949Z,16.15
2022-12-23T14:32:49.590Z,17.35
2022-12-23T14:35:42.029Z,16.75
2022-12-23T14:38:16.258Z,17.13
2022-12-23T14:40:44.378Z,17.33
2022-12-23T14:43:44.257Z,17.60
2022-12-23T14:46:35.291Z,17.25
2022-12-23T14:49:37.102Z,16.52
2022-12-23T14:51:52.055Z,16.35
2022-12-23T14:54:37.329Z,18.58
2022-12-23T14:57:14.193Z,16.08
2022-12-23T14:59:49.440Z,17.48
2022-12-23T15:02:25.492Z,16.60
2022-12-23T15:04:55.997Z,18.08
2022-12-23T15:07:32.907Z,18.15
2022-12-23T15:10:02.387Z,17.80
2022-12-23T15:12:38.064Z,18.05
2022-12-23T15:15:19.812Z,18.05
2022-12-23T15:17:48.422Z,17.05
2022-12-23T15:20:21.054Z,19.17
2022-12-23T15:22:50.548Z,17.00
2022-12-23T15:25:34.043Z,17.33
2022-12-23T15:28:02.998Z,16.95
2022-12-23T15:30:37.698Z,18.40
2022-12-23T15:33:28.025Z,19.00
2022-12-23T15:35:55.492Z,16.73
2022-12-23T15:38:26.551Z,19.13
2022-12-23T15:40:59.598Z,19.65
2022-12-23T15:43:27.571Z,17.23
2022-12-23T15:46:04.104Z,19.90
2022-12-23T15:48:32.754Z,18.48
2022-12-23T15:51:04.393Z,17.80
2022-12-23T15:53:35.485Z,18.08
2022-12-23T15:56:07.102Z,18.55
2022-12-23T15:58:35.711Z,16.83
2022-12-23T16:01:06.472Z,17.13
2022-12-23T16:03:37.372Z,17.88
2022-12-23T16:06:19.786Z,18.75
2022-12-23T16:09:00.652Z,17.95
2022-12-23T16:11:54.780Z,19.02
2022-12-23T16:14:38.473Z,18.52
2022-12-23T16:17:09.473Z,18.15
2022-12-23T16:19:54.608Z,16.73
2022-12-23T16:22:36.360Z,18.27
2022-12-23T16:25:24.882Z,17.48
2022-12-23T16:28:12.269Z,17.20
2022-12-23T16:30:52.634Z,17.73
2022-12-23T16:33:39.808Z,17.38
2022-12-23T16:36:28.397Z,18.30
2022-12-23T16:39:24.496Z,17.70
2022-12-23T16:41:52.322Z,19.80
2022-12-23T16:44:21.765Z,17.23
2022-12-23T16:46:50.243Z,18.77
2022-12-23T16:49:41.280Z,17.98
2022-12-23T16:52:10.135Z,17.15
2022-12-23T16:54:39.130Z,17.40
2022-12-23T16:57:14.172Z,18.20
2022-12-23T16:59:44.826Z,18.88
2022-12-23T17:02:18.876Z,18.38
2022-12-23T17:04:48.130Z,17.55
2022-12-23T17:07:21.892Z,17.15
2022-12-23T17:09:49.977Z,16.90
2022-12-23T17:12:19.632Z,16.90
2022-12-23T17:14:48.390Z,17.13
2022-12-23T17:17:17.046Z,17.38
2022-12-23T17:19:47.253Z,17.13
2022-12-23T17:22:17.127Z,17.60
2022-12-23T17:24:45.297Z,18.08
2022-12-23T17:27:18.027Z,18.13
2022-12-23T17:29:46.481Z,17.35
2022-12-23T17:32:19.644Z,18.23
2022-12-23T17:34:48.856Z,18.13
2022-12-23T17:37:19.506Z,18.50
2022-12-23T17:39:47.827Z,18.25
2022-12-23T17:42:25.446Z,18.67
2022-12-23T17:44:54.477Z,18.23
2022-12-23T17:47:24.542Z,17.77
2022-12-23T17:49:59.910Z,19.38
2022-12-23T17:52:28.488Z,18.80
2022-12-23T17:54:57.564Z,19.67
2022-12-23T17:57:26.231Z,19.13
2022-12-23T17:59:54.467Z,21.77
2022-12-23T18:02:27.463Z,20.08
2022-12-23T18:04:55.990Z,20.27
2022-12-23T18:07:24.004Z,20.73
2022-12-23T18:09:54.000Z,20.30
2022-12-23T18:12:26.363Z,18.20
2022-12-23T18:14:55.258Z,19.05
2022-12-23T18:17:25.593Z,20.38
2022-12-23T18:19:55.322Z,19.33
2022-12-23T18:22:24.923Z,20.25
2022-12-23T18:24:59.408Z,20.67
2022-12-23T18:27:28.634Z,20.40
2022-12-23T18:29:58.752Z,18.33
2022-12-23T18:32:27.743Z,20.50
2022-12-23T18:34:55.675Z,18.40
2022-12-23T18:37:24.450Z,20.08
2022-12-23T18:39:52.217Z,18.10
2022-12-23T18:42:23.176Z,20.58
2022-12-23T18:44:51.086Z,17.98
2022-12-23T18:47:23.711Z,19.52
2022-12-23T18:49:51.763Z,19.00
2022-12-23T18:52:21.765Z,19.90
2022-12-23T18:54:49.610Z,19.85
2022-12-23T18:57:20.226Z,21.20
2022-12-23T18:59:48.190Z,20.35
2022-12-23T19:02:16.108Z,20.40
2022-12-23T22:11:22.349Z,18.35
2022-12-23T22:17:14.179Z,20.95
2022-12-23T22:19:46.709Z,21.48
2022-12-23T22:22:24.735Z,20.17
2022-12-23T22:24:56.903Z,20.15
2022-12-23T22:27:25.628Z,20.27
2022-12-23T22:30:03.772Z,21.05
2022-12-23T22:37:13.565Z,19.02
2022-12-23T22:39:41.354Z,18.77
2022-12-23T22:42:09.254Z,19.30
2022-12-23T22:44:37.175Z,18.63
2022-12-23T22:47:07.563Z,18.77
2022-12-23T22:49:35.858Z,20.52
2022-12-23T22:52:03.938Z,20.38
2022-12-23T22:54:31.871Z,18.48
2022-12-23T22:56:59.691Z,20.67
2022-12-23T22:59:28.162Z,19.73
2022-12-23T23:01:56.021Z,20.20
2022-12-23T23:04:25.922Z,20.05
2022-12-23T23:07:00.160Z,20.38
2022-12-23T23:09:28.143Z,20.35
2022-12-23T23:11:56.029Z,19.45
2022-12-23T23:14:24.993Z,20.80
2022-12-23T23:16:54.448Z,20.48
2022-12-23T23:19:23.994Z,19.70
2022-12-23T23:21:53.568Z,19.45
2022-12-23T23:24:23.057Z,19.23
2022-12-23T23:26:54.483Z,19.38
2022-12-23T23:29:22.254Z,20.20
2022-12-23T23:31:50.832Z,19.83
2022-12-23T23:34:18.646Z,20.63
2022-12-23T23:36:46.453Z,20.67
2022-12-23T23:39:14.522Z,21.33
2022-12-23T23:41:43.728Z,20.88
2022-12-23T23:44:13.380Z,20.23
2022-12-23T23:46:41.287Z,22.15
2022-12-23T23:49:09.081Z,20.65
2022-12-23T23:51:37.254Z,20.52
2022-12-23T23:54:06.957Z,20.30
2022-12-23T23:56:38.778Z,19.67
2022-12-23T23:59:08.018Z,19.65
